sensor_id;sensor_type;location;lat;lon;timestamp;P1;durP1;ratioP1;P2;durP2;ratioP2
80778;SDS011;70170;47.856;10.956;2024-01-15T00:02:05;3.83;;;2.72;;
80778;SDS011;70170;47.856;10.956;2024-01-15T00:04:31;3.17;;;2.75;;
80778;SDS011;70170;47.856;10.956;2024-01-15T00:07:00;3.00;;;2.42;;
80778;SDS011;70170;47.856;10.956;2024-01-15T00:09:26;3.15;;;2.30;;
80778;SDS011;70170;47.856;10.956;2024-01-15T00:11:52;3.88;;;1.95;;
80778;SDS011;70170;47.856;10.956;2024-01-15T00:14:18;4.13;;;2.50;;
80778;SDS011;70170;47.856;10.956;2024-01-15T00:16:45;3.15;;;2.30;;
80778;SDS011;70170;47.856;10.956;2024-01-15T00:19:10;2.65;;;2.45;;
80778;SDS011;70170;47.856;10.956;2024-01-15T00:21:36;3.45;;;2.00;;
80778;SDS011;70170;47.856;10.956;2024-01-15T00:24:01;3.70;;;2.78;;
80778;SDS011;70170;47.856;10.956;2024-01-15T00:26:26;1.65;;;1.52;;
80778;SDS011;70170;47.856;10.956;2024-01-15T00:28:52;2.53;;;2.20;;
80778;SDS011;70170;47.856;10.956;2024-01-15T00:31:17;4.72;;;2.33;;
80778;SDS011;70170;47.856;10.956;2024-01-15T00:33:43;1.45;;;1.35;;
80778;SDS011;70170;47.856;10.956;2024-01-15T00:36:08;2.67;;;2.10;;
80778;SDS011;70170;47.856;10.956;2024-01-15T00:38:33;3.38;;;2.50;;
80778;SDS011;70170;47.856;10.956;2024-01-15T00:40:59;2.33;;;1.85;;
80778;SDS011;70170;47.856;10.956;2024-01-15T00:43:24;2.92;;;1.65;;
80778;SDS011;70170;47.856;10.956;2024-01-15T00:45:49;3.08;;;2.28;;
80778;SDS011;70170;47.856;10.956;2024-01-15T00:48:15;1.98;;;1.80;;
80778;SDS011;70170;47.856;10.956;2024-01-15T00:50:40;2.50;;;1.92;;
80778;SDS011;70170;47.856;10.956;2024-01-15T00:53:05;2.25;;;2.03;;
80778;SDS011;70170;47.856;10.956;2024-01-15T00:55:31;2.60;;;2.40;;
80778;SDS011;70170;47.856;10.956;2024-01-15T00:57:56;5.60;;;2.10;;
80778;SDS011;70170;47.856;10.956;2024-01-15T01:00:22;1.73;;;1.52;;
80778;SDS011;70170;47.856;10.956;2024-01-15T01:02:47;1.50;;;1.40;;
80778;SDS011;70170;47.856;10.956;2024-01-15T01:05:12;2.10;;;1.95;;
80778;SDS011;70170;47.856;10.956;2024-01-15T01:07:38;5.38;;;2.78;;
80778;SDS011;70170;47.856;10.956;2024-01-15T01:10:03;2.65;;;2.13;;
80778;SDS011;70170;47.856;10.956;2024-01-15T01:12:29;3.50;;;2.25;;
80778;SDS011;70170;47.856;10.956;2024-01-15T01:14:55;4.97;;;3.03;;
80778;SDS011;70170;47.856;10.956;2024-01-15T01:17:20;3.03;;;2.45;;
80778;SDS011;70170;47.856;10.956;2024-01-15T01:19:46;3.22;;;2.13;;
80778;SDS011;70170;47.856;10.956;2024-01-15T01:22:11;5.55;;;2.50;;
80778;SDS011;70170;47.856;10.956;2024-01-15T01:24:36;2.88;;;2.42;;
80778;SDS011;70170;47.856;10.956;2024-01-15T01:27:02;3.50;;;2.47;;
80778;SDS011;70170;47.856;10.956;2024-01-15T01:29:27;2.65;;;2.45;;
80778;SDS011;70170;47.856;10.956;2024-01-15T01:31:52;7.15;;;3.30;;
80778;SDS011;70170;47.856;10.956;2024-01-15T01:34:18;5.47;;;3.55;;
80778;SDS011;70170;47.856;10.956;2024-01-15T01:36:43;3.47;;;2.50;;
80778;SDS011;70170;47.856;10.956;2024-01-15T01:39:08;7.13;;;4.70;;
80778;SDS011;70170;47.856;10.956;2024-01-15T01:41:34;6.40;;;3.67;;
80778;SDS011;70170;47.856;10.956;2024-01-15T01:44:00;9.27;;;4.47;;
80778;SDS011;70170;47.856;10.956;2024-01-15T01:46:25;4.40;;;3.08;;
80778;SDS011;70170;47.856;10.956;2024-01-15T01:48:52;5.00;;;3.53;;
80778;SDS011;70170;47.856;10.956;2024-01-15T01:51:18;7.72;;;4.15;;
80778;SDS011;70170;47.856;10.956;2024-01-15T01:53:44;5.07;;;3.35;;
80778;SDS011;70170;47.856;10.956;2024-01-15T01:56:10;6.82;;;3.28;;
80778;SDS011;70170;47.856;10.956;2024-01-15T01:58:37;6.10;;;3.40;;
80778;SDS011;70170;47.856;10.956;2024-01-15T02:01:03;7.13;;;3.65;;
80778;SDS011;70170;47.856;10.956;2024-01-15T02:03:29;6.35;;;3.95;;
80778;SDS011;70170;47.856;10.956;2024-01-15T02:05:55;7.43;;;3.60;;
80778;SDS011;70170;47.856;10.956;2024-01-15T02:08:21;7.80;;;3.95;;
80778;SDS011;70170;47.856;10.956;2024-01-15T02:10:47;11.02;;;4.88;;
80778;SDS011;70170;47.856;10.956;2024-01-15T02:13:12;12.07;;;5.95;;
80778;SDS011;70170;47.856;10.956;2024-01-15T02:15:38;15.38;;;5.85;;
80778;SDS011;70170;47.856;10.956;2024-01-15T02:18:04;14.40;;;6.25;;
80778;SDS011;70170;47.856;10.956;2024-01-15T02:20:32;11.70;;;6.38;;
80778;SDS011;70170;47.856;10.956;2024-01-15T02:23:10;12.63;;;7.55;;
80778;SDS011;70170;47.856;10.956;2024-01-15T02:25:39;23.10;;;10.85;;
80778;SDS011;70170;47.856;10.956;2024-01-15T02:28:07;22.95;;;8.00;;
80778;SDS011;70170;47.856;10.956;2024-01-15T02:30:37;17.02;;;9.07;;
80778;SDS011;70170;47.856;10.956;2024-01-15T02:33:04;17.67;;;9.82;;
80778;SDS011;70170;47.856;10.956;2024-01-15T02:35:29;15.95;;;7.95;;
80778;SDS011;70170;47.856;10.956;2024-01-15T02:37:55;20.30;;;8.43;;
80778;SDS011;70170;47.856;10.956;2024-01-15T02:40:20;17.80;;;9.13;;
80778;SDS011;70170;47.856;10.956;2024-01-15T02:42:45;18.63;;;10.23;;
80778;SDS011;70170;47.856;10.956;2024-01-15T02:45:11;17.95;;;10.30;;
80778;SDS011;70170;47.856;10.956;2024-01-15T02:47:36;18.00;;;9.57;;
80778;SDS011;70170;47.856;10.956;2024-01-15T02:50:01;22.48;;;9.18;;
80778;SDS011;70170;47.856;10.956;2024-01-15T02:52:27;24.67;;;13.50;;
80778;SDS011;70170;47.856;10.956;2024-01-15T02:54:52;21.63;;;12.30;;
80778;SDS011;70170;47.856;10.956;2024-01-15T02:57:17;22.45;;;11.65;;
80778;SDS011;70170;47.856;10.956;2024-01-15T02:59:42;16.38;;;7.72;;
80778;SDS011;70170;47.856;10.956;2024-01-15T03:02:08;20.63;;;10.32;;
80778;SDS011;70170;47.856;10.956;2024-01-15T03:04:33;19.13;;;7.90;;
80778;SDS011;70170;47.856;10.956;2024-01-15T03:06:58;10.45;;;6.43;;
80778;SDS011;70170;47.856;10.956;2024-01-15T03:09:24;17.45;;;8.02;;
80778;SDS011;70170;47.856;10.956;2024-01-15T03:11:49;14.40;;;7.13;;
80778;SDS011;70170;47.856;10.956;2024-01-15T03:14:14;17.50;;;9.10;;
80778;SDS011;70170;47.856;10.956;2024-01-15T03:16:40;17.88;;;8.20;;
80778;SDS011;70170;47.856;10.956;2024-01-15T03:19:05;12.40;;;7.18;;
80778;SDS011;70170;47.856;10.956;2024-01-15T03:21:30;20.00;;;10.25;;
80778;SDS011;70170;47.856;10.956;2024-01-15T03:23:55;13.63;;;7.40;;
80778;SDS011;70170;47.856;10.956;2024-01-15T03:26:21;11.95;;;6.68;;
80778;SDS011;70170;47.856;10.956;2024-01-15T03:28:46;16.20;;;6.47;;
80778;SDS011;70170;47.856;10.956;2024-01-15T03:31:11;9.88;;;5.28;;
80778;SDS011;70170;47.856;10.956;2024-01-15T03:33:37;11.75;;;5.35;;
80778;SDS011;70170;47.856;10.956;2024-01-15T03:36:02;12.77;;;6.72;;
80778;SDS011;70170;47.856;10.956;2024-01-15T03:38:28;9.63;;;5.20;;
80778;SDS011;70170;47.856;10.956;2024-01-15T03:40:53;9.65;;;5.32;;
80778;SDS011;70170;47.856;10.956;2024-01-15T03:43:19;8.98;;;4.20;;
80778;SDS011;70170;47.856;10.956;2024-01-15T03:45:44;6.68;;;4.43;;
80778;SDS011;70170;47.856;10.956;2024-01-15T03:48:10;8.43;;;4.40;;
80778;SDS011;70170;47.856;10.956;2024-01-15T03:50:36;9.18;;;4.95;;
80778;SDS011;70170;47.856;10.956;2024-01-15T03:53:01;13.40;;;6.00;;
80778;SDS011;70170;47.856;10.956;2024-01-15T03:55:26;11.05;;;4.43;;
80778;SDS011;70170;47.856;10.956;2024-01-15T03:57:52;9.95;;;4.40;;
80778;SDS011;70170;47.856;10.956;2024-01-15T04:00:17;6.65;;;3.92;;
80778;SDS011;70170;47.856;10.956;2024-01-15T04:02:43;12.52;;;5.35;;
80778;SDS011;70170;47.856;10.956;2024-01-15T04:05:09;7.65;;;5.10;;
80778;SDS011;70170;47.856;10.956;2024-01-15T04:07:34;7.20;;;3.60;;
80778;SDS011;70170;47.856;10.956;2024-01-15T04:10:00;6.88;;;3.20;;
80778;SDS011;70170;47.856;10.956;2024-01-15T04:12:25;5.00;;;3.38;;
80778;SDS011;70170;47.856;10.956;2024-01-15T04:14:50;4.50;;;3.08;;
80778;SDS011;70170;47.856;10.956;2024-01-15T04:17:16;4.22;;;2.58;;
80778;SDS011;70170;47.856;10.956;2024-01-15T04:19:43;8.82;;;4.57;;
80778;SDS011;70170;47.856;10.956;2024-01-15T04:22:09;9.10;;;4.80;;
80778;SDS011;70170;47.856;10.956;2024-01-15T04:24:34;7.97;;;3.95;;
80778;SDS011;70170;47.856;10.956;2024-01-15T04:26:59;8.38;;;4.28;;
80778;SDS011;70170;47.856;10.956;2024-01-15T04:29:25;8.65;;;4.63;;
80778;SDS011;70170;47.856;10.956;2024-01-15T04:31:51;6.30;;;3.60;;
80778;SDS011;70170;47.856;10.956;2024-01-15T04:34:17;6.72;;;3.55;;
80778;SDS011;70170;47.856;10.956;2024-01-15T04:36:43;4.68;;;2.95;;
80778;SDS011;70170;47.856;10.956;2024-01-15T04:39:08;6.55;;;3.63;;
80778;SDS011;70170;47.856;10.956;2024-01-15T04:41:33;5.82;;;3.53;;
80778;SDS011;70170;47.856;10.956;2024-01-15T04:43:59;5.82;;;3.38;;
80778;SDS011;70170;47.856;10.956;2024-01-15T04:46:26;9.50;;;4.30;;
80778;SDS011;70170;47.856;10.956;2024-01-15T04:48:51;5.30;;;3.50;;
80778;SDS011;70170;47.856;10.956;2024-01-15T04:51:16;8.27;;;4.80;;
80778;SDS011;70170;47.856;10.956;2024-01-15T04:53:42;6.25;;;3.25;;
80778;SDS011;70170;47.856;10.956;2024-01-15T04:56:07;11.60;;;4.78;;
80778;SDS011;70170;47.856;10.956;2024-01-15T04:58:32;7.45;;;3.53;;
80778;SDS011;70170;47.856;10.956;2024-01-15T05:00:57;5.88;;;3.92;;
80778;SDS011;70170;47.856;10.956;2024-01-15T05:03:23;6.03;;;2.92;;
80778;SDS011;70170;47.856;10.956;2024-01-15T05:05:48;7.20;;;4.05;;
80778;SDS011;70170;47.856;10.956;2024-01-15T05:08:13;8.55;;;4.22;;
80778;SDS011;70170;47.856;10.956;2024-01-15T05:10:39;4.40;;;2.95;;
80778;SDS011;70170;47.856;10.956;2024-01-15T05:13:04;10.30;;;5.78;;
80778;SDS011;70170;47.856;10.956;2024-01-15T05:15:29;6.22;;;4.10;;
80778;SDS011;70170;47.856;10.956;2024-01-15T05:17:54;7.10;;;3.72;;
80778;SDS011;70170;47.856;10.956;2024-01-15T05:20:20;5.40;;;3.35;;
80778;SDS011;70170;47.856;10.956;2024-01-15T05:22:45;4.35;;;3.05;;
80778;SDS011;70170;47.856;10.956;2024-01-15T05:25:10;6.55;;;2.78;;
80778;SDS011;70170;47.856;10.956;2024-01-15T05:27:36;5.80;;;3.08;;
80778;SDS011;70170;47.856;10.956;2024-01-15T05:30:02;5.32;;;3.47;;
80778;SDS011;70170;47.856;10.956;2024-01-15T05:32:27;5.38;;;2.50;;
80778;SDS011;70170;47.856;10.956;2024-01-15T05:34:53;7.20;;;3.20;;
80778;SDS011;70170;47.856;10.956;2024-01-15T05:37:18;5.45;;;3.22;;
80778;SDS011;70170;47.856;10.956;2024-01-15T05:39:44;3.72;;;2.55;;
80778;SDS011;70170;47.856;10.956;2024-01-15T05:42:09;6.47;;;3.53;;
80778;SDS011;70170;47.856;10.956;2024-01-15T05:44:34;4.03;;;2.75;;
80778;SDS011;70170;47.856;10.956;2024-01-15T05:46:59;7.15;;;2.83;;
80778;SDS011;70170;47.856;10.956;2024-01-15T05:49:25;3.30;;;2.67;;
80778;SDS011;70170;47.856;10.956;2024-01-15T05:51:50;6.20;;;3.78;;
80778;SDS011;70170;47.856;10.956;2024-01-15T05:54:16;5.05;;;3.40;;
80778;SDS011;70170;47.856;10.956;2024-01-15T05:56:43;5.95;;;3.33;;
80778;SDS011;70170;47.856;10.956;2024-01-15T05:59:08;6.57;;;3.47;;
80778;SDS011;70170;47.856;10.956;2024-01-15T06:01:34;4.65;;;2.95;;
80778;SDS011;70170;47.856;10.956;2024-01-15T06:03:59;5.75;;;3.17;;
80778;SDS011;70170;47.856;10.956;2024-01-15T06:06:24;4.72;;;2.95;;
80778;SDS011;70170;47.856;10.956;2024-01-15T06:08:49;7.53;;;2.70;;
80778;SDS011;70170;47.856;10.956;2024-01-15T06:11:15;4.30;;;2.75;;
80778;SDS011;70170;47.856;10.956;2024-01-15T06:13:40;5.80;;;3.60;;
80778;SDS011;70170;47.856;10.956;2024-01-15T06:16:13;6.15;;;3.60;;
80778;SDS011;70170;47.856;10.956;2024-01-15T06:21:04;6.00;;;4.05;;
80778;SDS011;70170;47.856;10.956;2024-01-15T06:23:30;4.78;;;2.95;;
80778;SDS011;70170;47.856;10.956;2024-01-15T06:25:55;5.45;;;3.47;;
80778;SDS011;70170;47.856;10.956;2024-01-15T06:28:20;3.83;;;2.55;;
80778;SDS011;70170;47.856;10.956;2024-01-15T06:30:45;6.15;;;3.63;;
80778;SDS011;70170;47.856;10.956;2024-01-15T06:33:11;7.13;;;4.38;;
80778;SDS011;70170;47.856;10.956;2024-01-15T06:35:36;9.80;;;3.20;;
80778;SDS011;70170;47.856;10.956;2024-01-15T06:38:01;5.28;;;3.05;;
80778;SDS011;70170;47.856;10.956;2024-01-15T06:40:27;6.85;;;3.03;;
80778;SDS011;70170;47.856;10.956;2024-01-15T06:42:52;3.97;;;2.88;;
80778;SDS011;70170;47.856;10.956;2024-01-15T06:45:17;4.07;;;3.22;;
80778;SDS011;70170;47.856;10.956;2024-01-15T06:47:43;4.97;;;3.13;;
80778;SDS011;70170;47.856;10.956;2024-01-15T06:50:08;4.72;;;2.88;;
80778;SDS011;70170;47.856;10.956;2024-01-15T06:52:33;6.13;;;3.30;;
80778;SDS011;70170;47.856;10.956;2024-01-15T06:54:59;8.32;;;3.10;;
80778;SDS011;70170;47.856;10.956;2024-01-15T06:57:24;9.88;;;3.83;;
80778;SDS011;70170;47.856;10.956;2024-01-15T06:59:49;5.30;;;3.00;;
80778;SDS011;70170;47.856;10.956;2024-01-15T07:02:15;4.95;;;2.97;;
80778;SDS011;70170;47.856;10.956;2024-01-15T07:04:40;7.03;;;3.67;;
80778;SDS011;70170;47.856;10.956;2024-01-15T07:07:06;3.70;;;2.63;;
80778;SDS011;70170;47.856;10.956;2024-01-15T07:09:31;4.32;;;3.08;;
80778;SDS011;70170;47.856;10.956;2024-01-15T07:11:56;5.40;;;3.42;;
80778;SDS011;70170;47.856;10.956;2024-01-15T07:14:23;4.88;;;2.95;;
80778;SDS011;70170;47.856;10.956;2024-01-15T07:16:48;5.13;;;3.33;;
80778;SDS011;70170;47.856;10.956;2024-01-15T07:19:13;4.95;;;3.25;;
80778;SDS011;70170;47.856;10.956;2024-01-15T07:21:39;4.03;;;3.08;;
80778;SDS011;70170;47.856;10.956;2024-01-15T07:24:05;6.13;;;3.10;;
80778;SDS011;70170;47.856;10.956;2024-01-15T07:26:30;6.75;;;3.78;;
80778;SDS011;70170;47.856;10.956;2024-01-15T07:28:56;5.18;;;2.85;;
80778;SDS011;70170;47.856;10.956;2024-01-15T07:31:21;8.45;;;3.78;;
80778;SDS011;70170;47.856;10.956;2024-01-15T07:33:47;5.18;;;3.60;;
80778;SDS011;70170;47.856;10.956;2024-01-15T07:36:12;9.15;;;4.13;;
80778;SDS011;70170;47.856;10.956;2024-01-15T07:38:37;8.02;;;3.97;;
80778;SDS011;70170;47.856;10.956;2024-01-15T07:41:03;4.60;;;2.83;;
80778;SDS011;70170;47.856;10.956;2024-01-15T07:43:28;6.50;;;3.65;;
80778;SDS011;70170;47.856;10.956;2024-01-15T07:45:54;5.88;;;3.25;;
80778;SDS011;70170;47.856;10.956;2024-01-15T07:48:19;7.18;;;3.58;;
80778;SDS011;70170;47.856;10.956;2024-01-15T07:50:45;6.13;;;3.70;;
80778;SDS011;70170;47.856;10.956;2024-01-15T07:53:11;5.15;;;2.90;;
80778;SDS011;70170;47.856;10.956;2024-01-15T07:55:36;3.53;;;2.22;;
80778;SDS011;70170;47.856;10.956;2024-01-15T07:58:01;7.95;;;4.35;;
80778;SDS011;70170;47.856;10.956;2024-01-15T08:00:27;5.38;;;3.28;;
80778;SDS011;70170;47.856;10.956;2024-01-15T08:02:52;6.88;;;3.45;;
80778;SDS011;70170;47.856;10.956;2024-01-15T08:05:18;3.15;;;2.63;;
80778;SDS011;70170;47.856;10.956;2024-01-15T08:07:43;7.15;;;3.63;;
80778;SDS011;70170;47.856;10.956;2024-01-15T08:10:09;3.50;;;3.05;;
80778;SDS011;70170;47.856;10.956;2024-01-15T08:12:34;5.97;;;3.58;;
80778;SDS011;70170;47.856;10.956;2024-01-15T08:15:00;8.13;;;3.95;;
80778;SDS011;70170;47.856;10.956;2024-01-15T08:17:25;5.32;;;3.50;;
80778;SDS011;70170;47.856;10.956;2024-01-15T08:19:53;4.50;;;3.05;;
80778;SDS011;70170;47.856;10.956;2024-01-15T08:22:19;5.93;;;3.67;;
80778;SDS011;70170;47.856;10.956;2024-01-15T08:24:45;10.63;;;4.38;;
80778;SDS011;70170;47.856;10.956;2024-01-15T08:27:10;5.82;;;3.25;;
80778;SDS011;70170;47.856;10.956;2024-01-15T08:29:36;5.78;;;3.72;;
80778;SDS011;70170;47.856;10.956;2024-01-15T08:32:01;7.25;;;3.28;;
80778;SDS011;70170;47.856;10.956;2024-01-15T08:34:27;6.00;;;3.22;;
80778;SDS011;70170;47.856;10.956;2024-01-15T08:36:52;8.07;;;3.42;;
80778;SDS011;70170;47.856;10.956;2024-01-15T08:39:17;4.15;;;3.05;;
80778;SDS011;70170;47.856;10.956;2024-01-15T08:41:44;7.07;;;4.30;;
80778;SDS011;70170;47.856;10.956;2024-01-15T08:44:09;5.32;;;3.20;;
80778;SDS011;70170;47.856;10.956;2024-01-15T08:46:35;3.35;;;2.30;;
80778;SDS011;70170;47.856;10.956;2024-01-15T08:49:00;8.18;;;4.22;;
80778;SDS011;70170;47.856;10.956;2024-01-15T08:51:25;3.83;;;2.17;;
80778;SDS011;70170;47.856;10.956;2024-01-15T08:53:51;6.43;;;2.70;;
80778;SDS011;70170;47.856;10.956;2024-01-15T08:56:16;4.40;;;2.70;;
80778;SDS011;70170;47.856;10.956;2024-01-15T08:58:42;8.30;;;3.30;;
80778;SDS011;70170;47.856;10.956;2024-01-15T09:01:07;9.55;;;4.13;;
80778;SDS011;70170;47.856;10.956;2024-01-15T09:03:32;5.90;;;3.28;;
80778;SDS011;70170;47.856;10.956;2024-01-15T09:05:58;6.07;;;3.40;;
80778;SDS011;70170;47.856;10.956;2024-01-15T09:08:24;10.55;;;3.22;;
80778;SDS011;70170;47.856;10.956;2024-01-15T09:10:49;5.25;;;2.75;;
80778;SDS011;70170;47.856;10.956;2024-01-15T09:13:15;5.13;;;3.05;;
80778;SDS011;70170;47.856;10.956;2024-01-15T09:15:41;8.32;;;3.17;;
80778;SDS011;70170;47.856;10.956;2024-01-15T09:18:07;3.97;;;2.28;;
80778;SDS011;70170;47.856;10.956;2024-01-15T09:20:33;8.05;;;3.55;;
80778;SDS011;70170;47.856;10.956;2024-01-15T09:22:58;6.05;;;3.70;;
80778;SDS011;70170;47.856;10.956;2024-01-15T09:25:23;4.45;;;2.97;;
80778;SDS011;70170;47.856;10.956;2024-01-15T09:27:49;10.50;;;3.88;;
80778;SDS011;70170;47.856;10.956;2024-01-15T09:30:14;5.78;;;3.30;;
80778;SDS011;70170;47.856;10.956;2024-01-15T09:32:40;7.60;;;4.80;;
80778;SDS011;70170;47.856;10.956;2024-01-15T09:35:05;10.07;;;4.30;;
80778;SDS011;70170;47.856;10.956;2024-01-15T09:37:31;11.02;;;4.50;;
80778;SDS011;70170;47.856;10.956;2024-01-15T09:39:56;5.65;;;3.00;;
80778;SDS011;70170;47.856;10.956;2024-01-15T09:42:22;3.53;;;2.35;;
80778;SDS011;70170;47.856;10.956;2024-01-15T09:44:49;6.85;;;3.45;;
80778;SDS011;70170;47.856;10.956;2024-01-15T09:47:15;7.18;;;4.13;;
80778;SDS011;70170;47.856;10.956;2024-01-15T09:49:42;5.95;;;3.42;;
80778;SDS011;70170;47.856;10.956;2024-01-15T09:52:08;11.48;;;5.20;;
80778;SDS011;70170;47.856;10.956;2024-01-15T09:54:35;6.20;;;3.45;;
80778;SDS011;70170;47.856;10.956;2024-01-15T09:57:01;5.95;;;3.55;;
80778;SDS011;70170;47.856;10.956;2024-01-15T09:59:27;7.70;;;3.20;;
80778;SDS011;70170;47.856;10.956;2024-01-15T10:01:53;4.40;;;3.28;;
80778;SDS011;70170;47.856;10.956;2024-01-15T10:04:19;5.57;;;3.13;;
80778;SDS011;70170;47.856;10.956;2024-01-15T10:06:44;5.63;;;2.80;;
80778;SDS011;70170;47.856;10.956;2024-01-15T10:09:12;7.88;;;2.65;;
80778;SDS011;70170;47.856;10.956;2024-01-15T10:11:39;5.70;;;2.42;;
80778;SDS011;70170;47.856;10.956;2024-01-15T10:14:06;4.45;;;3.33;;
80778;SDS011;70170;47.856;10.956;2024-01-15T10:16:31;6.40;;;3.40;;
80778;SDS011;70170;47.856;10.956;2024-01-15T10:18:57;5.88;;;3.25;;
80778;SDS011;70170;47.856;10.956;2024-01-15T10:21:22;6.32;;;3.08;;
80778;SDS011;70170;47.856;10.956;2024-01-15T10:23:48;4.70;;;3.20;;
80778;SDS011;70170;47.856;10.956;2024-01-15T10:26:14;7.85;;;4.40;;
80778;SDS011;70170;47.856;10.956;2024-01-15T10:28:40;3.63;;;2.45;;
80778;SDS011;70170;47.856;10.956;2024-01-15T10:31:05;2.92;;;2.47;;
80778;SDS011;70170;47.856;10.956;2024-01-15T10:33:31;4.63;;;3.00;;
80778;SDS011;70170;47.856;10.956;2024-01-15T10:35:57;5.85;;;3.17;;
80778;SDS011;70170;47.856;10.956;2024-01-15T10:38:23;5.80;;;3.20;;
80778;SDS011;70170;47.856;10.956;2024-01-15T10:40:53;4.88;;;2.85;;
80778;SDS011;70170;47.856;10.956;2024-01-15T10:43:19;4.30;;;2.55;;
80778;SDS011;70170;47.856;10.956;2024-01-15T10:45:45;2.97;;;2.25;;
80778;SDS011;70170;47.856;10.956;2024-01-15T10:48:15;2.40;;;2.20;;
80778;SDS011;70170;47.856;10.956;2024-01-15T10:50:41;4.70;;;2.00;;
80778;SDS011;70170;47.856;10.956;2024-01-15T10:53:06;3.17;;;2.20;;
80778;SDS011;70170;47.856;10.956;2024-01-15T10:55:34;5.68;;;2.63;;
80778;SDS011;70170;47.856;10.956;2024-01-15T10:58:00;4.40;;;2.60;;
80778;SDS011;70170;47.856;10.956;2024-01-15T11:00:26;6.95;;;2.65;;
80778;SDS011;70170;47.856;10.956;2024-01-15T11:02:51;4.95;;;2.50;;
80778;SDS011;70170;47.856;10.956;2024-01-15T11:05:20;4.32;;;2.42;;
80778;SDS011;70170;47.856;10.956;2024-01-15T11:07:48;4.60;;;2.55;;
80778;SDS011;70170;47.856;10.956;2024-01-15T11:13:08;5.05;;;2.38;;
80778;SDS011;70170;47.856;10.956;2024-01-15T11:15:47;4.20;;;2.53;;
80778;SDS011;70170;47.856;10.956;2024-01-15T11:18:19;3.13;;;2.13;;
80778;SDS011;70170;47.856;10.956;2024-01-15T11:23:47;5.18;;;2.22;;
80778;SDS011;70170;47.856;10.956;2024-01-15T11:26:55;2.10;;;1.80;;
80778;SDS011;70170;47.856;10.956;2024-01-15T11:29:07;3.70;;;2.00;;
80778;SDS011;70170;47.856;10.956;2024-01-15T11:34:07;4.88;;;2.70;;
80778;SDS011;70170;47.856;10.956;2024-01-15T11:41:51;3.58;;;2.33;;
80778;SDS011;70170;47.856;10.956;2024-01-15T11:44:17;3.75;;;2.10;;
80778;SDS011;70170;47.856;10.956;2024-01-15T11:46:43;5.05;;;2.10;;
80778;SDS011;70170;47.856;10.956;2024-01-15T11:52:12;3.75;;;2.30;;
80778;SDS011;70170;47.856;10.956;2024-01-15T11:54:42;4.63;;;2.17;;
80778;SDS011;70170;47.856;10.956;2024-01-15T11:59:44;2.85;;;2.17;;
80778;SDS011;70170;47.856;10.956;2024-01-15T12:02:09;3.55;;;2.63;;
80778;SDS011;70170;47.856;10.956;2024-01-15T12:04:37;4.15;;;2.33;;
80778;SDS011;70170;47.856;10.956;2024-01-15T12:07:04;3.35;;;2.03;;
80778;SDS011;70170;47.856;10.956;2024-01-15T12:09:29;2.75;;;1.90;;
80778;SDS011;70170;47.856;10.956;2024-01-15T12:11:57;3.30;;;2.33;;
80778;SDS011;70170;47.856;10.956;2024-01-15T12:14:30;3.13;;;2.30;;
80778;SDS011;70170;47.856;10.956;2024-01-15T12:16:57;5.38;;;2.72;;
80778;SDS011;70170;47.856;10.956;2024-01-15T12:19:23;3.35;;;2.10;;
80778;SDS011;70170;47.856;10.956;2024-01-15T12:21:50;4.35;;;2.70;;
80778;SDS011;70170;47.856;10.956;2024-01-15T12:24:16;9.82;;;2.30;;
80778;SDS011;70170;47.856;10.956;2024-01-15T12:26:42;4.63;;;1.83;;
80778;SDS011;70170;47.856;10.956;2024-01-15T12:29:07;3.13;;;2.17;;
80778;SDS011;70170;47.856;10.956;2024-01-15T12:31:33;2.15;;;1.90;;
80778;SDS011;70170;47.856;10.956;2024-01-15T12:34:01;2.60;;;2.00;;
80778;SDS011;70170;47.856;10.956;2024-01-15T12:36:26;2.42;;;1.50;;
80778;SDS011;70170;47.856;10.956;2024-01-15T12:38:52;2.70;;;2.00;;
80778;SDS011;70170;47.856;10.956;2024-01-15T12:41:17;3.50;;;2.20;;
80778;SDS011;70170;47.856;10.956;2024-01-15T12:43:42;9.10;;;2.25;;
80778;SDS011;70170;47.856;10.956;2024-01-15T12:46:08;4.05;;;2.15;;
80778;SDS011;70170;47.856;10.956;2024-01-15T12:48:34;3.10;;;1.80;;
80778;SDS011;70170;47.856;10.956;2024-01-15T12:50:59;5.82;;;2.40;;
80778;SDS011;70170;47.856;10.956;2024-01-15T12:53:25;2.58;;;2.00;;
80778;SDS011;70170;47.856;10.956;2024-01-15T12:55:51;2.22;;;2.00;;
80778;SDS011;70170;47.856;10.956;2024-01-15T12:58:17;2.40;;;1.83;;
80778;SDS011;70170;47.856;10.956;2024-01-15T13:00:42;1.83;;;1.65;;
80778;SDS011;70170;47.856;10.956;2024-01-15T13:03:07;2.03;;;1.70;;
80778;SDS011;70170;47.856;10.956;2024-01-15T13:05:33;1.90;;;1.70;;
80778;SDS011;70170;47.856;10.956;2024-01-15T13:07:59;2.10;;;1.55;;
80778;SDS011;70170;47.856;10.956;2024-01-15T13:10:24;1.88;;;1.67;;
80778;SDS011;70170;47.856;10.956;2024-01-15T13:12:50;1.88;;;1.35;;
80778;SDS011;70170;47.856;10.956;2024-01-15T13:15:15;2.05;;;1.67;;
80778;SDS011;70170;47.856;10.956;2024-01-15T13:17:41;2.55;;;1.45;;
80778;SDS011;70170;47.856;10.956;2024-01-15T13:20:07;1.52;;;1.42;;
80778;SDS011;70170;47.856;10.956;2024-01-15T13:22:33;1.55;;;1.23;;
80778;SDS011;70170;47.856;10.956;2024-01-15T13:24:58;1.35;;;1.10;;
80778;SDS011;70170;47.856;10.956;2024-01-15T13:27:24;2.15;;;1.45;;
80778;SDS011;70170;47.856;10.956;2024-01-15T13:29:49;1.80;;;1.38;;
80778;SDS011;70170;47.856;10.956;2024-01-15T13:32:16;1.83;;;1.38;;
80778;SDS011;70170;47.856;10.956;2024-01-15T13:34:46;6.80;;;1.65;;
80778;SDS011;70170;47.856;10.956;2024-01-15T13:37:11;1.63;;;1.35;;
80778;SDS011;70170;47.856;10.956;2024-01-15T13:39:36;1.38;;;1.27;;
80778;SDS011;70170;47.856;10.956;2024-01-15T13:42:02;4.97;;;1.30;;
80778;SDS011;70170;47.856;10.956;2024-01-15T13:44:28;1.40;;;1.30;;
80778;SDS011;70170;47.856;10.956;2024-01-15T13:46:53;4.60;;;1.20;;
80778;SDS011;70170;47.856;10.956;2024-01-15T13:49:18;1.40;;;1.30;;
80778;SDS011;70170;47.856;10.956;2024-01-15T13:51:43;1.35;;;1.25;;
80778;SDS011;70170;47.856;10.956;2024-01-15T13:54:09;1.75;;;1.60;;
80778;SDS011;70170;47.856;10.956;2024-01-15T13:56:34;1.58;;;1.33;;
80778;SDS011;70170;47.856;10.956;2024-01-15T13:59:00;1.63;;;1.52;;
80778;SDS011;70170;47.856;10.956;2024-01-15T14:01:25;1.30;;;1.30;;
80778;SDS011;70170;47.856;10.956;2024-01-15T14:03:53;1.30;;;1.20;;
80778;SDS011;70170;47.856;10.956;2024-01-15T14:06:19;1.52;;;1.42;;
80778;SDS011;70170;47.856;10.956;2024-01-15T14:08:45;1.85;;;1.30;;
80778;SDS011;70170;47.856;10.956;2024-01-15T14:11:10;1.42;;;1.33;;
80778;SDS011;70170;47.856;10.956;2024-01-15T14:13:35;1.20;;;1.13;;
80778;SDS011;70170;47.856;10.956;2024-01-15T14:16:00;2.08;;;1.60;;
80778;SDS011;70170;47.856;10.956;2024-01-15T14:18:26;1.85;;;1.48;;
80778;SDS011;70170;47.856;10.956;2024-01-15T14:20:52;1.90;;;1.55;;
80778;SDS011;70170;47.856;10.956;2024-01-15T14:23:18;1.88;;;1.77;;
80778;SDS011;70170;47.856;10.956;2024-01-15T14:25:44;1.45;;;1.35;;
80778;SDS011;70170;47.856;10.956;2024-01-15T14:28:09;1.65;;;1.55;;
80778;SDS011;70170;47.856;10.956;2024-01-15T14:30:35;1.73;;;1.63;;
80778;SDS011;70170;47.856;10.956;2024-01-15T14:33:01;1.85;;;1.65;;
80778;SDS011;70170;47.856;10.956;2024-01-15T14:35:26;2.28;;;1.95;;
80778;SDS011;70170;47.856;10.956;2024-01-15T14:37:51;4.00;;;2.00;;
80778;SDS011;70170;47.856;10.956;2024-01-15T14:40:17;2.25;;;1.70;;
80778;SDS011;70170;47.856;10.956;2024-01-15T14:42:43;2.15;;;1.83;;
80778;SDS011;70170;47.856;10.956;2024-01-15T14:45:08;2.92;;;1.73;;
80778;SDS011;70170;47.856;10.956;2024-01-15T14:47:37;2.10;;;1.80;;